Ann Arbor, MI

2:12 AM EDT on July 01, 2015 (GMT -0400)
Leslie Park Golf Course | | Change Station
CLOSE
Current Station
Personal Weather Station
Location: Ann Arbor, MI
Elevation: 906 ft
Nearby Weather Stations

Elev 906 ft 42.31 °N, 83.72 °W | Updated 11 seconds ago

Overcast
Overcast
63.2 °F
Feels Like 63.2 °F
N
1.0
Wind Variable Wind from NW
Gusts 3.0 mph

Today
High -- | Low -- °F
--% Chance of Precip.
Yesterday
High -- | Low -- °F
Precip. -- in
6:01 AM 9:15 PM
Waxing Gibbous, 99% visible
Pressure 29.79 in
Visibility 8.0 miles
Clouds Overcast 800 ft
Dew Point 62 °F
Humidity 97%
Rainfall 0.00 in
Snow Depth Not available.
UV 0 out of 12
Pollen 1.50 out of 12
Air Quality Not available.
Flu Activity Not available.
METAR KARB 010553Z AUTO 30007KT 8SM OVC008 18/16 A2980 RMK AO2 SLP087 6//// T01780161 10189 20172 58000 $

More Conditions Fewer Conditions

Pressure 29.79 in
Visibility 8.0 miles
Clouds Overcast 800 ft
Dew Point 62 °F
Humidity 97%
Rainfall 0.00 in
Snow Depth Not available.
UV 0 out of 12
Pollen 1.50 out of 12
Air Quality Not available.
Flu Activity Not available.
METAR KARB 010553Z AUTO 30007KT 8SM OVC008 18/16 A2980 RMK AO2 SLP087 6//// T01780161 10189 20172 58000 $

More Conditions Fewer Conditions

10-Day Weather Forecast

×

Almanac

Astronomy

Jul. 01, 2015 Rise Set
Actual Time
Civil Twilight
Nautical Twilight
Astronomical Twilight
Moon
Length of Visible Light
Length of Day
Tomorrow will be .
, % of the Moon is Illuminated

Today's Extremes

State Highs State Lows

Community

WunderPhotos

Upload Photos

1,834,156 photos uploaded!

WunderBlogs® & News

Nearby

Air Quality

  Air Quality AQ Index Pollutant
Not available.

Snow Depth

Station Depth Elevation

Earthquake Activity

City Distance Mag. Time & Date
Minimum magnitude displayed is 2.5.

Coastal Water Temperatures

Place Temperature

Stations

Nearby Weather Stations

Station Location Temp. Windchill Dew Point Humidity Wind Precip. Elev Updated Type